sensor_id;sensor_type;location;lat;lon;timestamp;P1;durP1;ratioP1;P2;durP2;ratioP2
51778;SDS011;37843;53.266;6.746;2022-09-03T00:01:45;5.82;;;4.47;;
51778;SDS011;37843;53.266;6.746;2022-09-03T00:04:31;5.65;;;3.80;;
51778;SDS011;37843;53.266;6.746;2022-09-03T00:07:03;4.30;;;3.47;;
51778;SDS011;37843;53.266;6.746;2022-09-03T00:09:35;3.88;;;3.47;;
51778;SDS011;37843;53.266;6.746;2022-09-03T00:14:38;5.90;;;4.35;;
51778;SDS011;37843;53.266;6.746;2022-09-03T00:17:10;5.00;;;4.50;;
51778;SDS011;37843;53.266;6.746;2022-09-03T00:19:40;7.60;;;3.80;;
51778;SDS011;37843;53.266;6.746;2022-09-03T00:22:11;4.28;;;3.65;;
51778;SDS011;37843;53.266;6.746;2022-09-03T00:24:39;9.15;;;4.78;;
51778;SDS011;37843;53.266;6.746;2022-09-03T00:27:10;6.72;;;3.28;;
51778;SDS011;37843;53.266;6.746;2022-09-03T00:29:38;6.38;;;4.00;;
51778;SDS011;37843;53.266;6.746;2022-09-03T00:32:08;6.80;;;3.20;;
51778;SDS011;37843;53.266;6.746;2022-09-03T00:34:39;6.57;;;3.45;;
51778;SDS011;37843;53.266;6.746;2022-09-03T00:37:08;4.38;;;2.55;;
51778;SDS011;37843;53.266;6.746;2022-09-03T00:39:34;6.30;;;2.38;;
51778;SDS011;37843;53.266;6.746;2022-09-03T00:42:08;2.78;;;1.92;;
51778;SDS011;37843;53.266;6.746;2022-09-03T00:44:49;2.53;;;2.00;;
51778;SDS011;37843;53.266;6.746;2022-09-03T01:00:05;1.88;;;1.40;;
51778;SDS011;37843;53.266;6.746;2022-09-03T01:18:00;2.28;;;1.60;;
51778;SDS011;37843;53.266;6.746;2022-09-03T01:26:11;3.28;;;1.58;;
51778;SDS011;37843;53.266;6.746;2022-09-03T01:36:19;1.40;;;1.30;;
51778;SDS011;37843;53.266;6.746;2022-09-03T01:46:45;2.23;;;1.40;;
51778;SDS011;37843;53.266;6.746;2022-09-03T01:49:18;1.58;;;1.40;;
51778;SDS011;37843;53.266;6.746;2022-09-03T01:51:58;1.77;;;1.65;;
51778;SDS011;37843;53.266;6.746;2022-09-03T01:54:36;5.88;;;1.70;;
51778;SDS011;37843;53.266;6.746;2022-09-03T01:59:58;1.75;;;1.40;;
51778;SDS011;37843;53.266;6.746;2022-09-03T02:02:27;1.38;;;1.27;;
51778;SDS011;37843;53.266;6.746;2022-09-03T02:05:11;1.48;;;1.38;;
51778;SDS011;37843;53.266;6.746;2022-09-03T02:07:45;3.05;;;1.38;;
51778;SDS011;37843;53.266;6.746;2022-09-03T02:10:13;2.38;;;1.60;;
51778;SDS011;37843;53.266;6.746;2022-09-03T02:12:40;2.28;;;1.73;;
51778;SDS011;37843;53.266;6.746;2022-09-03T02:15:10;1.90;;;1.45;;
51778;SDS011;37843;53.266;6.746;2022-09-03T02:17:37;1.42;;;1.33;;
51778;SDS011;37843;53.266;6.746;2022-09-03T02:20:06;2.08;;;1.40;;
51778;SDS011;37843;53.266;6.746;2022-09-03T02:22:36;1.60;;;1.33;;
51778;SDS011;37843;53.266;6.746;2022-09-03T02:25:03;2.17;;;1.50;;
51778;SDS011;37843;53.266;6.746;2022-09-03T02:27:29;2.20;;;1.45;;
51778;SDS011;37843;53.266;6.746;2022-09-03T02:29:56;2.20;;;1.60;;
51778;SDS011;37843;53.266;6.746;2022-09-03T02:32:22;3.63;;;1.60;;
51778;SDS011;37843;53.266;6.746;2022-09-03T02:34:48;4.32;;;1.73;;
51778;SDS011;37843;53.266;6.746;2022-09-03T02:37:15;2.78;;;1.45;;
51778;SDS011;37843;53.266;6.746;2022-09-03T02:39:42;4.05;;;1.50;;
51778;SDS011;37843;53.266;6.746;2022-09-03T02:42:09;2.28;;;1.52;;
51778;SDS011;37843;53.266;6.746;2022-09-03T02:44:38;1.75;;;1.50;;
51778;SDS011;37843;53.266;6.746;2022-09-03T02:47:06;2.60;;;1.88;;
51778;SDS011;37843;53.266;6.746;2022-09-03T02:49:32;3.50;;;1.80;;
51778;SDS011;37843;53.266;6.746;2022-09-03T02:51:59;1.67;;;1.40;;
51778;SDS011;37843;53.266;6.746;2022-09-03T02:54:29;6.78;;;1.70;;
51778;SDS011;37843;53.266;6.746;2022-09-03T02:56:57;1.92;;;1.73;;
51778;SDS011;37843;53.266;6.746;2022-09-03T02:59:23;3.63;;;1.77;;
51778;SDS011;37843;53.266;6.746;2022-09-03T03:01:52;2.30;;;1.70;;
51778;SDS011;37843;53.266;6.746;2022-09-03T03:04:18;1.70;;;1.60;;
51778;SDS011;37843;53.266;6.746;2022-09-03T03:06:44;2.15;;;1.80;;
51778;SDS011;37843;53.266;6.746;2022-09-03T03:09:10;3.88;;;2.50;;
51778;SDS011;37843;53.266;6.746;2022-09-03T03:11:43;3.38;;;1.90;;
51778;SDS011;37843;53.266;6.746;2022-09-03T03:14:09;4.88;;;1.80;;
51778;SDS011;37843;53.266;6.746;2022-09-03T03:16:35;2.47;;;2.00;;
51778;SDS011;37843;53.266;6.746;2022-09-03T03:19:02;4.53;;;2.20;;
51778;SDS011;37843;53.266;6.746;2022-09-03T03:21:28;2.17;;;1.80;;
51778;SDS011;37843;53.266;6.746;2022-09-03T03:23:54;1.90;;;1.70;;
51778;SDS011;37843;53.266;6.746;2022-09-03T03:26:21;3.35;;;1.88;;
51778;SDS011;37843;53.266;6.746;2022-09-03T03:28:48;3.10;;;2.00;;
51778;SDS011;37843;53.266;6.746;2022-09-03T03:31:15;2.00;;;1.83;;
51778;SDS011;37843;53.266;6.746;2022-09-03T03:33:42;1.95;;;1.55;;
51778;SDS011;37843;53.266;6.746;2022-09-03T03:36:12;2.97;;;1.58;;
51778;SDS011;37843;53.266;6.746;2022-09-03T03:38:38;4.72;;;1.80;;
51778;SDS011;37843;53.266;6.746;2022-09-03T03:41:06;2.58;;;1.70;;
51778;SDS011;37843;53.266;6.746;2022-09-03T03:43:32;3.75;;;1.80;;
51778;SDS011;37843;53.266;6.746;2022-09-03T03:45:58;3.40;;;1.98;;
51778;SDS011;37843;53.266;6.746;2022-09-03T03:48:24;2.90;;;2.17;;
51778;SDS011;37843;53.266;6.746;2022-09-03T03:50:51;6.07;;;2.15;;
51778;SDS011;37843;53.266;6.746;2022-09-03T03:53:17;2.78;;;1.90;;
51778;SDS011;37843;53.266;6.746;2022-09-03T03:55:52;6.55;;;2.20;;
51778;SDS011;37843;53.266;6.746;2022-09-03T03:58:19;3.60;;;2.58;;
51778;SDS011;37843;53.266;6.746;2022-09-03T04:00:45;6.88;;;4.03;;
51778;SDS011;37843;53.266;6.746;2022-09-03T04:03:14;2.90;;;1.98;;
51778;SDS011;37843;53.266;6.746;2022-09-03T04:05:40;3.47;;;2.03;;
51778;SDS011;37843;53.266;6.746;2022-09-03T04:08:07;1.67;;;1.58;;
51778;SDS011;37843;53.266;6.746;2022-09-03T04:10:34;2.65;;;1.60;;
51778;SDS011;37843;53.266;6.746;2022-09-03T04:13:00;3.00;;;1.90;;
51778;SDS011;37843;53.266;6.746;2022-09-03T04:15:26;1.75;;;1.48;;
51778;SDS011;37843;53.266;6.746;2022-09-03T04:17:53;1.70;;;1.60;;
51778;SDS011;37843;53.266;6.746;2022-09-03T04:20:19;3.00;;;1.67;;
51778;SDS011;37843;53.266;6.746;2022-09-03T04:22:45;1.70;;;1.60;;
51778;SDS011;37843;53.266;6.746;2022-09-03T04:25:11;3.42;;;2.05;;
51778;SDS011;37843;53.266;6.746;2022-09-03T04:27:38;2.05;;;1.80;;
51778;SDS011;37843;53.266;6.746;2022-09-03T04:30:04;1.90;;;1.60;;
51778;SDS011;37843;53.266;6.746;2022-09-03T04:32:30;3.88;;;2.30;;
51778;SDS011;37843;53.266;6.746;2022-09-03T04:35:15;2.17;;;1.98;;
51778;SDS011;37843;53.266;6.746;2022-09-03T04:37:41;2.58;;;2.10;;
51778;SDS011;37843;53.266;6.746;2022-09-03T04:40:07;4.05;;;3.00;;
51778;SDS011;37843;53.266;6.746;2022-09-03T04:42:33;2.25;;;1.80;;
51778;SDS011;37843;53.266;6.746;2022-09-03T04:44:59;3.95;;;2.13;;
51778;SDS011;37843;53.266;6.746;2022-09-03T04:47:25;2.10;;;1.90;;
51778;SDS011;37843;53.266;6.746;2022-09-03T04:49:52;2.53;;;1.85;;
51778;SDS011;37843;53.266;6.746;2022-09-03T04:52:19;3.15;;;1.98;;
51778;SDS011;37843;53.266;6.746;2022-09-03T04:54:45;1.92;;;1.73;;
51778;SDS011;37843;53.266;6.746;2022-09-03T04:57:11;4.40;;;2.30;;
51778;SDS011;37843;53.266;6.746;2022-09-03T04:59:37;4.80;;;1.85;;
51778;SDS011;37843;53.266;6.746;2022-09-03T05:02:05;2.28;;;2.00;;
51778;SDS011;37843;53.266;6.746;2022-09-03T05:04:32;2.72;;;1.63;;
51778;SDS011;37843;53.266;6.746;2022-09-03T05:06:58;3.63;;;2.15;;
51778;SDS011;37843;53.266;6.746;2022-09-03T05:09:24;3.65;;;2.00;;
51778;SDS011;37843;53.266;6.746;2022-09-03T05:11:50;2.35;;;1.83;;
51778;SDS011;37843;53.266;6.746;2022-09-03T05:14:17;3.88;;;1.70;;
51778;SDS011;37843;53.266;6.746;2022-09-03T05:16:43;1.88;;;1.70;;
51778;SDS011;37843;53.266;6.746;2022-09-03T05:19:09;2.20;;;1.90;;
51778;SDS011;37843;53.266;6.746;2022-09-03T05:21:36;2.03;;;1.83;;
51778;SDS011;37843;53.266;6.746;2022-09-03T05:24:02;3.00;;;2.00;;
51778;SDS011;37843;53.266;6.746;2022-09-03T05:26:30;2.78;;;2.58;;
51778;SDS011;37843;53.266;6.746;2022-09-03T05:28:57;2.20;;;1.88;;
51778;SDS011;37843;53.266;6.746;2022-09-03T05:31:25;2.33;;;1.92;;
51778;SDS011;37843;53.266;6.746;2022-09-03T05:33:52;2.05;;;1.85;;
51778;SDS011;37843;53.266;6.746;2022-09-03T05:36:20;5.70;;;1.80;;
51778;SDS011;37843;53.266;6.746;2022-09-03T05:38:50;3.72;;;2.00;;
51778;SDS011;37843;53.266;6.746;2022-09-03T05:41:20;2.20;;;1.92;;
51778;SDS011;37843;53.266;6.746;2022-09-03T05:43:47;5.10;;;2.03;;
51778;SDS011;37843;53.266;6.746;2022-09-03T05:46:19;3.70;;;2.10;;
51778;SDS011;37843;53.266;6.746;2022-09-03T05:48:45;2.53;;;2.00;;
51778;SDS011;37843;53.266;6.746;2022-09-03T05:51:12;2.67;;;1.98;;
51778;SDS011;37843;53.266;6.746;2022-09-03T05:53:41;2.63;;;1.92;;
51778;SDS011;37843;53.266;6.746;2022-09-03T05:56:15;3.63;;;1.92;;
51778;SDS011;37843;53.266;6.746;2022-09-03T05:58:42;4.55;;;2.35;;
51778;SDS011;37843;53.266;6.746;2022-09-03T06:03:35;3.10;;;2.13;;
51778;SDS011;37843;53.266;6.746;2022-09-03T06:06:01;1.95;;;1.80;;
51778;SDS011;37843;53.266;6.746;2022-09-03T06:08:29;4.03;;;1.77;;
51778;SDS011;37843;53.266;6.746;2022-09-03T06:10:59;2.95;;;1.85;;
51778;SDS011;37843;53.266;6.746;2022-09-03T06:13:28;1.80;;;1.50;;
51778;SDS011;37843;53.266;6.746;2022-09-03T06:15:55;5.38;;;1.95;;
51778;SDS011;37843;53.266;6.746;2022-09-03T06:18:21;2.45;;;2.08;;
51778;SDS011;37843;53.266;6.746;2022-09-03T06:20:56;2.35;;;1.80;;
51778;SDS011;37843;53.266;6.746;2022-09-03T06:23:23;4.18;;;1.75;;
51778;SDS011;37843;53.266;6.746;2022-09-03T06:26:06;8.05;;;2.00;;
51778;SDS011;37843;53.266;6.746;2022-09-03T06:28:33;2.03;;;1.85;;
51778;SDS011;37843;53.266;6.746;2022-09-03T06:31:00;4.40;;;1.60;;
51778;SDS011;37843;53.266;6.746;2022-09-03T06:33:27;4.03;;;2.05;;
51778;SDS011;37843;53.266;6.746;2022-09-03T06:35:55;2.90;;;1.90;;
51778;SDS011;37843;53.266;6.746;2022-09-03T06:38:22;4.88;;;2.00;;
51778;SDS011;37843;53.266;6.746;2022-09-03T06:40:55;7.30;;;2.25;;
51778;SDS011;37843;53.266;6.746;2022-09-03T06:43:22;2.35;;;1.70;;
51778;SDS011;37843;53.266;6.746;2022-09-03T06:45:52;1.73;;;1.63;;
51778;SDS011;37843;53.266;6.746;2022-09-03T06:48:18;2.65;;;1.80;;
51778;SDS011;37843;53.266;6.746;2022-09-03T06:50:52;2.42;;;1.60;;
51778;SDS011;37843;53.266;6.746;2022-09-03T06:53:18;3.33;;;1.70;;
51778;SDS011;37843;53.266;6.746;2022-09-03T06:55:51;1.85;;;1.67;;
51778;SDS011;37843;53.266;6.746;2022-09-03T06:58:17;2.13;;;1.92;;
51778;SDS011;37843;53.266;6.746;2022-09-03T07:00:43;2.05;;;1.60;;
51778;SDS011;37843;53.266;6.746;2022-09-03T07:03:09;3.80;;;1.63;;
51778;SDS011;37843;53.266;6.746;2022-09-03T07:05:35;2.80;;;2.03;;
51778;SDS011;37843;53.266;6.746;2022-09-03T07:08:02;5.28;;;1.80;;
51778;SDS011;37843;53.266;6.746;2022-09-03T07:10:28;3.80;;;1.73;;
51778;SDS011;37843;53.266;6.746;2022-09-03T07:12:54;2.05;;;1.65;;
51778;SDS011;37843;53.266;6.746;2022-09-03T07:15:20;2.40;;;1.75;;
51778;SDS011;37843;53.266;6.746;2022-09-03T07:17:46;2.38;;;1.83;;
51778;SDS011;37843;53.266;6.746;2022-09-03T07:20:13;2.30;;;1.85;;
51778;SDS011;37843;53.266;6.746;2022-09-03T07:22:39;3.67;;;1.40;;
51778;SDS011;37843;53.266;6.746;2022-09-03T07:25:05;3.20;;;1.80;;
51778;SDS011;37843;53.266;6.746;2022-09-03T07:27:33;1.80;;;1.50;;
51778;SDS011;37843;53.266;6.746;2022-09-03T07:29:59;2.42;;;1.60;;
51778;SDS011;37843;53.266;6.746;2022-09-03T07:32:27;2.03;;;1.38;;
51778;SDS011;37843;53.266;6.746;2022-09-03T07:34:53;3.33;;;1.40;;
51778;SDS011;37843;53.266;6.746;2022-09-03T07:37:19;4.45;;;1.63;;
51778;SDS011;37843;53.266;6.746;2022-09-03T07:39:45;2.13;;;1.50;;
51778;SDS011;37843;53.266;6.746;2022-09-03T07:42:11;2.53;;;1.90;;
51778;SDS011;37843;53.266;6.746;2022-09-03T07:44:37;2.25;;;1.58;;
51778;SDS011;37843;53.266;6.746;2022-09-03T07:47:03;3.55;;;1.50;;
51778;SDS011;37843;53.266;6.746;2022-09-03T07:49:30;3.38;;;1.58;;
51778;SDS011;37843;53.266;6.746;2022-09-03T07:51:56;2.63;;;1.42;;
51778;SDS011;37843;53.266;6.746;2022-09-03T07:54:22;1.63;;;1.45;;
51778;SDS011;37843;53.266;6.746;2022-09-03T07:56:51;3.35;;;1.40;;
51778;SDS011;37843;53.266;6.746;2022-09-03T07:59:17;3.17;;;1.50;;
51778;SDS011;37843;53.266;6.746;2022-09-03T08:01:44;1.70;;;1.50;;
51778;SDS011;37843;53.266;6.746;2022-09-03T08:04:10;3.25;;;1.45;;
51778;SDS011;37843;53.266;6.746;2022-09-03T08:06:36;2.42;;;1.67;;
51778;SDS011;37843;53.266;6.746;2022-09-03T08:09:04;2.35;;;1.58;;
51778;SDS011;37843;53.266;6.746;2022-09-03T08:11:31;2.20;;;1.50;;
51778;SDS011;37843;53.266;6.746;2022-09-03T08:13:59;2.03;;;1.50;;
51778;SDS011;37843;53.266;6.746;2022-09-03T08:16:27;1.88;;;1.40;;
51778;SDS011;37843;53.266;6.746;2022-09-03T08:18:54;5.68;;;1.77;;
51778;SDS011;37843;53.266;6.746;2022-09-03T08:21:20;2.42;;;1.20;;
51778;SDS011;37843;53.266;6.746;2022-09-03T08:23:48;4.13;;;1.65;;
51778;SDS011;37843;53.266;6.746;2022-09-03T08:26:15;1.85;;;1.30;;
51778;SDS011;37843;53.266;6.746;2022-09-03T08:28:41;1.92;;;1.67;;
51778;SDS011;37843;53.266;6.746;2022-09-03T08:31:08;2.78;;;1.40;;
51778;SDS011;37843;53.266;6.746;2022-09-03T08:33:38;1.80;;;1.50;;
51778;SDS011;37843;53.266;6.746;2022-09-03T08:36:10;1.85;;;1.40;;
51778;SDS011;37843;53.266;6.746;2022-09-03T08:38:37;5.45;;;1.60;;
51778;SDS011;37843;53.266;6.746;2022-09-03T08:41:09;2.65;;;1.27;;
51778;SDS011;37843;53.266;6.746;2022-09-03T08:49:02;3.22;;;1.70;;
51778;SDS011;37843;53.266;6.746;2022-09-03T08:51:29;2.35;;;1.35;;
51778;SDS011;37843;53.266;6.746;2022-09-03T08:54:01;3.85;;;1.52;;
51778;SDS011;37843;53.266;6.746;2022-09-03T08:56:39;4.20;;;2.20;;
51778;SDS011;37843;53.266;6.746;2022-09-03T08:59:08;4.45;;;1.42;;
51778;SDS011;37843;53.266;6.746;2022-09-03T09:12:14;3.00;;;1.60;;
51778;SDS011;37843;53.266;6.746;2022-09-03T09:19:56;3.17;;;1.60;;
51778;SDS011;37843;53.266;6.746;2022-09-03T09:25:02;3.25;;;1.70;;
51778;SDS011;37843;53.266;6.746;2022-09-03T09:27:31;2.80;;;1.50;;
51778;SDS011;37843;53.266;6.746;2022-09-03T09:29:57;2.42;;;1.38;;
51778;SDS011;37843;53.266;6.746;2022-09-03T09:32:29;2.90;;;1.45;;
51778;SDS011;37843;53.266;6.746;2022-09-03T09:35:07;1.85;;;1.33;;
51778;SDS011;37843;53.266;6.746;2022-09-03T09:37:34;3.15;;;1.15;;
51778;SDS011;37843;53.266;6.746;2022-09-03T09:40:11;2.00;;;1.40;;
51778;SDS011;37843;53.266;6.746;2022-09-03T09:42:47;2.03;;;1.40;;
51778;SDS011;37843;53.266;6.746;2022-09-03T09:45:18;2.55;;;1.33;;
51778;SDS011;37843;53.266;6.746;2022-09-03T09:47:44;2.03;;;1.33;;
51778;SDS011;37843;53.266;6.746;2022-09-03T09:50:16;2.10;;;1.30;;
51778;SDS011;37843;53.266;6.746;2022-09-03T09:52:42;12.85;;;2.22;;
51778;SDS011;37843;53.266;6.746;2022-09-03T09:55:14;2.50;;;1.25;;
51778;SDS011;37843;53.266;6.746;2022-09-03T09:57:41;4.53;;;1.30;;
51778;SDS011;37843;53.266;6.746;2022-09-03T10:00:17;3.85;;;1.52;;
51778;SDS011;37843;53.266;6.746;2022-09-03T10:02:50;2.42;;;1.25;;
51778;SDS011;37843;53.266;6.746;2022-09-03T10:10:32;7.57;;;1.40;;
51778;SDS011;37843;53.266;6.746;2022-09-03T10:13:03;2.50;;;1.25;;
51778;SDS011;37843;53.266;6.746;2022-09-03T10:15:39;3.15;;;1.30;;
51778;SDS011;37843;53.266;6.746;2022-09-03T10:20:45;2.80;;;1.15;;
51778;SDS011;37843;53.266;6.746;2022-09-03T10:23:26;5.28;;;1.50;;
51778;SDS011;37843;53.266;6.746;2022-09-03T10:28:24;4.68;;;1.50;;
51778;SDS011;37843;53.266;6.746;2022-09-03T10:33:30;2.80;;;1.10;;
51778;SDS011;37843;53.266;6.746;2022-09-03T10:38:38;3.58;;;1.50;;
51778;SDS011;37843;53.266;6.746;2022-09-03T10:43:45;2.83;;;1.38;;
51778;SDS011;37843;53.266;6.746;2022-09-03T10:46:28;3.40;;;1.30;;
51778;SDS011;37843;53.266;6.746;2022-09-03T10:49:23;4.32;;;1.50;;
51778;SDS011;37843;53.266;6.746;2022-09-03T10:52:02;6.85;;;1.95;;
51778;SDS011;37843;53.266;6.746;2022-09-03T10:57:24;1.67;;;1.27;;
51778;SDS011;37843;53.266;6.746;2022-09-03T11:02:45;2.20;;;1.10;;
51778;SDS011;37843;53.266;6.746;2022-09-03T11:05:27;1.55;;;1.23;;
51778;SDS011;37843;53.266;6.746;2022-09-03T11:11:35;2.33;;;1.17;;
51778;SDS011;37843;53.266;6.746;2022-09-03T11:13:45;2.03;;;1.10;;
51778;SDS011;37843;53.266;6.746;2022-09-03T11:16:17;6.05;;;1.50;;
51778;SDS011;37843;53.266;6.746;2022-09-03T11:18:53;3.15;;;1.20;;
51778;SDS011;37843;53.266;6.746;2022-09-03T11:21:34;4.05;;;1.20;;
51778;SDS011;37843;53.266;6.746;2022-09-03T11:24:05;3.40;;;1.23;;
51778;SDS011;37843;53.266;6.746;2022-09-03T11:26:33;2.13;;;1.20;;
51778;SDS011;37843;53.266;6.746;2022-09-03T11:29:09;3.05;;;1.15;;
51778;SDS011;37843;53.266;6.746;2022-09-03T11:31:51;2.28;;;1.02;;
51778;SDS011;37843;53.266;6.746;2022-09-03T11:36:51;3.28;;;1.10;;
51778;SDS011;37843;53.266;6.746;2022-09-03T11:39:33;1.58;;;1.20;;
51778;SDS011;37843;53.266;6.746;2022-09-03T11:42:23;2.17;;;1.17;;
51778;SDS011;37843;53.266;6.746;2022-09-03T11:45:11;5.35;;;1.60;;
51778;SDS011;37843;53.266;6.746;2022-09-03T11:47:42;4.63;;;1.20;;
51778;SDS011;37843;53.266;6.746;2022-09-03T11:50:16;8.95;;;2.20;;
51778;SDS011;37843;53.266;6.746;2022-09-03T11:52:45;4.50;;;1.85;;
51778;SDS011;37843;53.266;6.746;2022-09-03T11:58:16;2.72;;;1.35;;
51778;SDS011;37843;53.266;6.746;2022-09-03T12:00:44;1.30;;;1.20;;
51778;SDS011;37843;53.266;6.746;2022-09-03T12:03:12;3.95;;;1.17;;
51778;SDS011;37843;53.266;6.746;2022-09-03T12:18:42;1.40;;;1.07;;
51778;SDS011;37843;53.266;6.746;2022-09-03T12:21:15;1.95;;;1.30;;
51778;SDS011;37843;53.266;6.746;2022-09-03T12:23:48;2.35;;;1.17;;
51778;SDS011;37843;53.266;6.746;2022-09-03T12:26:16;2.17;;;1.20;;
51778;SDS011;37843;53.266;6.746;2022-09-03T12:28:44;1.33;;;0.90;;
51778;SDS011;37843;53.266;6.746;2022-09-03T12:33:51;1.27;;;0.85;;
51778;SDS011;37843;53.266;6.746;2022-09-03T12:36:18;1.15;;;1.05;;
51778;SDS011;37843;53.266;6.746;2022-09-03T12:38:47;2.78;;;1.10;;
51778;SDS011;37843;53.266;6.746;2022-09-03T12:41:23;1.73;;;1.02;;
51778;SDS011;37843;53.266;6.746;2022-09-03T12:43:51;2.92;;;1.13;;
51778;SDS011;37843;53.266;6.746;2022-09-03T12:46:18;5.28;;;1.13;;
51778;SDS011;37843;53.266;6.746;2022-09-03T12:48:54;4.43;;;1.10;;
51778;SDS011;37843;53.266;6.746;2022-09-03T12:51:25;1.67;;;1.10;;
51778;SDS011;37843;53.266;6.746;2022-09-03T12:54:01;2.47;;;1.20;;
51778;SDS011;37843;53.266;6.746;2022-09-03T12:56:28;1.95;;;1.10;;
51778;SDS011;37843;53.266;6.746;2022-09-03T12:59:00;4.40;;;1.38;;
51778;SDS011;37843;53.266;6.746;2022-09-03T13:01:29;1.48;;;1.10;;
51778;SDS011;37843;53.266;6.746;2022-09-03T13:04:16;1.60;;;1.17;;
51778;SDS011;37843;53.266;6.746;2022-09-03T13:07:04;2.42;;;1.98;;
51778;SDS011;37843;53.266;6.746;2022-09-03T13:09:32;2.55;;;1.23;;
51778;SDS011;37843;53.266;6.746;2022-09-03T13:11:59;2.33;;;1.13;;
51778;SDS011;37843;53.266;6.746;2022-09-03T13:14:40;1.45;;;0.90;;
51778;SDS011;37843;53.266;6.746;2022-09-03T13:25:10;1.65;;;1.15;;
51778;SDS011;37843;53.266;6.746;2022-09-03T13:27:56;2.75;;;1.27;;
51778;SDS011;37843;53.266;6.746;2022-09-03T13:30:37;2.72;;;1.00;;
51778;SDS011;37843;53.266;6.746;2022-09-03T13:33:21;4.15;;;1.30;;
51778;SDS011;37843;53.266;6.746;2022-09-03T13:35:50;3.90;;;1.15;;
51778;SDS011;37843;53.266;6.746;2022-09-03T13:38:24;2.10;;;1.17;;
51778;SDS011;37843;53.266;6.746;2022-09-03T13:43:53;4.43;;;1.30;;
51778;SDS011;37843;53.266;6.746;2022-09-03T13:46:24;1.98;;;1.08;;
51778;SDS011;37843;53.266;6.746;2022-09-03T13:48:56;2.70;;;1.00;;
51778;SDS011;37843;53.266;6.746;2022-09-03T13:51:46;1.35;;;1.08;;
51778;SDS011;37843;53.266;6.746;2022-09-03T13:54:33;2.97;;;0.90;;
51778;SDS011;37843;53.266;6.746;2022-09-03T14:13:23;2.85;;;1.00;;
51778;SDS011;37843;53.266;6.746;2022-09-03T14:15:59;1.17;;;0.98;;
51778;SDS011;37843;53.266;6.746;2022-09-03T14:21:55;1.00;;;0.85;;
51778;SDS011;37843;53.266;6.746;2022-09-03T14:24:25;2.67;;;1.13;;
51778;SDS011;37843;53.266;6.746;2022-09-03T14:26:55;3.13;;;1.40;;
51778;SDS011;37843;53.266;6.746;2022-09-03T14:29:26;2.70;;;1.05;;
51778;SDS011;37843;53.266;6.746;2022-09-03T14:39:55;5.75;;;1.27;;
51778;SDS011;37843;53.266;6.746;2022-09-03T14:42:42;2.47;;;1.00;;
51778;SDS011;37843;53.266;6.746;2022-09-03T14:47:47;4.15;;;1.25;;
51778;SDS011;37843;53.266;6.746;2022-09-03T14:50:21;1.40;;;0.98;;
51778;SDS011;37843;53.266;6.746;2022-09-03T14:55:38;1.40;;;0.95;;
51778;SDS011;37843;53.266;6.746;2022-09-03T15:11:09;1.58;;;1.17;;
51778;SDS011;37843;53.266;6.746;2022-09-03T15:13:44;2.20;;;1.50;;
51778;SDS011;37843;53.266;6.746;2022-09-03T15:29:20;4.05;;;1.15;;
51778;SDS011;37843;53.266;6.746;2022-09-03T15:34:58;1.52;;;1.00;;
51778;SDS011;37843;53.266;6.746;2022-09-03T15:42:49;2.75;;;1.17;;
51778;SDS011;37843;53.266;6.746;2022-09-03T15:45:39;8.55;;;1.40;;
51778;SDS011;37843;53.266;6.746;2022-09-03T15:48:09;6.93;;;1.55;;
51778;SDS011;37843;53.266;6.746;2022-09-03T15:53:31;2.63;;;1.10;;
51778;SDS011;37843;53.266;6.746;2022-09-03T15:58:49;2.22;;;1.70;;
51778;SDS011;37843;53.266;6.746;2022-09-03T16:01:22;1.20;;;1.08;;
51778;SDS011;37843;53.266;6.746;2022-09-03T16:09:29;1.60;;;1.00;;
51778;SDS011;37843;53.266;6.746;2022-09-03T16:12:04;4.57;;;1.33;;
51778;SDS011;37843;53.266;6.746;2022-09-03T16:14:42;3.25;;;1.10;;
51778;SDS011;37843;53.266;6.746;2022-09-03T16:22:53;1.58;;;1.17;;
51778;SDS011;37843;53.266;6.746;2022-09-03T16:25:16;5.97;;;1.20;;
51778;SDS011;37843;53.266;6.746;2022-09-03T16:27:51;4.90;;;1.30;;
51778;SDS011;37843;53.266;6.746;2022-09-03T16:41:10;4.07;;;1.40;;
51778;SDS011;37843;53.266;6.746;2022-09-03T16:48:59;2.92;;;1.25;;
51778;SDS011;37843;53.266;6.746;2022-09-03T17:08:00;3.78;;;1.20;;
51778;SDS011;37843;53.266;6.746;2022-09-03T17:16:18;3.47;;;1.20;;
51778;SDS011;37843;53.266;6.746;2022-09-03T17:21:15;7.20;;;1.40;;
51778;SDS011;37843;53.266;6.746;2022-09-03T17:34:10;3.17;;;1.02;;
51778;SDS011;37843;53.266;6.746;2022-09-03T17:36:47;3.97;;;1.40;;
51778;SDS011;37843;53.266;6.746;2022-09-03T17:42:04;2.40;;;1.10;;
51778;SDS011;37843;53.266;6.746;2022-09-03T17:49:45;1.70;;;1.30;;
51778;SDS011;37843;53.266;6.746;2022-09-03T17:52:35;2.90;;;1.30;;
51778;SDS011;37843;53.266;6.746;2022-09-03T17:57:39;1.52;;;1.25;;
51778;SDS011;37843;53.266;6.746;2022-09-03T18:00:09;2.17;;;1.20;;
51778;SDS011;37843;53.266;6.746;2022-09-03T18:02:43;4.90;;;1.98;;
51778;SDS011;37843;53.266;6.746;2022-09-03T18:13:02;1.85;;;1.33;;
51778;SDS011;37843;53.266;6.746;2022-09-03T18:18:28;4.22;;;2.20;;
51778;SDS011;37843;53.266;6.746;2022-09-03T18:20:56;2.45;;;1.42;;
51778;SDS011;37843;53.266;6.746;2022-09-03T18:29:46;2.33;;;1.52;;
51778;SDS011;37843;53.266;6.746;2022-09-03T18:32:32;2.72;;;1.20;;
51778;SDS011;37843;53.266;6.746;2022-09-03T18:35:17;4.80;;;1.23;;
51778;SDS011;37843;53.266;6.746;2022-09-03T18:38:03;2.53;;;1.25;;
51778;SDS011;37843;53.266;6.746;2022-09-03T18:43:45;2.13;;;1.27;;
51778;SDS011;37843;53.266;6.746;2022-09-03T18:46:49;4.03;;;1.52;;
51778;SDS011;37843;53.266;6.746;2022-09-03T18:52:25;2.93;;;1.27;;
51778;SDS011;37843;53.266;6.746;2022-09-03T18:55:18;3.92;;;1.30;;
51778;SDS011;37843;53.266;6.746;2022-09-03T18:58:09;1.95;;;1.27;;
51778;SDS011;37843;53.266;6.746;2022-09-03T19:04:24;1.63;;;1.10;;
51778;SDS011;37843;53.266;6.746;2022-09-03T19:07:10;1.42;;;1.23;;
51778;SDS011;37843;53.266;6.746;2022-09-03T19:22:05;2.58;;;1.23;;
51778;SDS011;37843;53.266;6.746;2022-09-03T19:24:53;3.22;;;1.42;;
51778;SDS011;37843;53.266;6.746;2022-09-03T19:27:56;2.75;;;1.45;;
51778;SDS011;37843;53.266;6.746;2022-09-03T19:30:46;4.07;;;1.40;;
51778;SDS011;37843;53.266;6.746;2022-09-03T19:33:45;1.73;;;1.20;;
51778;SDS011;37843;53.266;6.746;2022-09-03T19:36:41;2.33;;;1.27;;
51778;SDS011;37843;53.266;6.746;2022-09-03T19:45:24;1.92;;;1.60;;
51778;SDS011;37843;53.266;6.746;2022-09-03T19:51:07;2.05;;;1.40;;
51778;SDS011;37843;53.266;6.746;2022-09-03T19:53:53;3.60;;;1.48;;
51778;SDS011;37843;53.266;6.746;2022-09-03T19:56:38;2.47;;;1.30;;
51778;SDS011;37843;53.266;6.746;2022-09-03T19:59:23;2.97;;;1.40;;
51778;SDS011;37843;53.266;6.746;2022-09-03T20:02:10;1.90;;;1.30;;
51778;SDS011;37843;53.266;6.746;2022-09-03T20:04:58;1.70;;;1.17;;
51778;SDS011;37843;53.266;6.746;2022-09-03T20:07:47;1.45;;;1.33;;
51778;SDS011;37843;53.266;6.746;2022-09-03T20:10:32;1.70;;;1.20;;
51778;SDS011;37843;53.266;6.746;2022-09-03T20:13:16;2.30;;;1.40;;
51778;SDS011;37843;53.266;6.746;2022-09-03T20:18:20;1.77;;;1.25;;
51778;SDS011;37843;53.266;6.746;2022-09-03T20:21:08;2.22;;;1.63;;
51778;SDS011;37843;53.266;6.746;2022-09-03T20:23:39;1.48;;;1.38;;
51778;SDS011;37843;53.266;6.746;2022-09-03T20:26:12;2.08;;;1.10;;
51778;SDS011;37843;53.266;6.746;2022-09-03T20:31:30;1.63;;;1.42;;
51778;SDS011;37843;53.266;6.746;2022-09-03T20:36:46;2.75;;;2.08;;
51778;SDS011;37843;53.266;6.746;2022-09-03T20:39:24;3.58;;;1.50;;
51778;SDS011;37843;53.266;6.746;2022-09-03T20:47:11;3.13;;;1.13;;
51778;SDS011;37843;53.266;6.746;2022-09-03T20:52:11;2.15;;;1.40;;
51778;SDS011;37843;53.266;6.746;2022-09-03T20:54:55;2.58;;;1.50;;
51778;SDS011;37843;53.266;6.746;2022-09-03T20:57:50;2.17;;;1.60;;
51778;SDS011;37843;53.266;6.746;2022-09-03T21:00:12;2.60;;;1.42;;
51778;SDS011;37843;53.266;6.746;2022-09-03T21:11:20;2.20;;;1.27;;
51778;SDS011;37843;53.266;6.746;2022-09-03T21:16:06;3.45;;;1.50;;